sensor_id;sensor_type;location;lat;lon;timestamp;P1;durP1;ratioP1;P2;durP2;ratioP2
16760;SDS011;8498;52.516;13.790;2023-06-14T00:01:44;7.90;;;2.60;;
16760;SDS011;8498;52.516;13.790;2023-06-14T00:07:08;3.27;;;2.67;;
16760;SDS011;8498;52.516;13.790;2023-06-14T00:12:33;3.57;;;2.63;;
16760;SDS011;8498;52.516;13.790;2023-06-14T00:17:55;3.57;;;2.73;;
16760;SDS011;8498;52.516;13.790;2023-06-14T00:23:18;2.93;;;2.73;;
16760;SDS011;8498;52.516;13.790;2023-06-14T00:28:41;4.53;;;3.00;;
16760;SDS011;8498;52.516;13.790;2023-06-14T00:34:03;7.47;;;3.43;;
16760;SDS011;8498;52.516;13.790;2023-06-14T00:39:26;3.63;;;3.10;;
16760;SDS011;8498;52.516;13.790;2023-06-14T00:44:50;3.83;;;2.97;;
16760;SDS011;8498;52.516;13.790;2023-06-14T00:50:12;4.00;;;2.70;;
16760;SDS011;8498;52.516;13.790;2023-06-14T00:55:35;3.67;;;3.30;;
16760;SDS011;8498;52.516;13.790;2023-06-14T01:00:57;3.27;;;2.97;;
16760;SDS011;8498;52.516;13.790;2023-06-14T01:18:22;3.80;;;2.97;;
16760;SDS011;8498;52.516;13.790;2023-06-14T01:23:46;5.97;;;3.50;;
16760;SDS011;8498;52.516;13.790;2023-06-14T01:29:15;4.57;;;3.60;;
16760;SDS011;8498;52.516;13.790;2023-06-14T01:34:40;5.63;;;3.30;;
16760;SDS011;8498;52.516;13.790;2023-06-14T01:40:03;3.70;;;3.30;;
16760;SDS011;8498;52.516;13.790;2023-06-14T01:45:29;4.10;;;3.20;;
16760;SDS011;8498;52.516;13.790;2023-06-14T01:50:53;6.33;;;3.57;;
16760;SDS011;8498;52.516;13.790;2023-06-14T01:56:16;3.40;;;3.10;;
16760;SDS011;8498;52.516;13.790;2023-06-14T02:01:38;4.43;;;3.47;;
16760;SDS011;8498;52.516;13.790;2023-06-14T02:07:01;5.60;;;3.77;;
16760;SDS011;8498;52.516;13.790;2023-06-14T02:12:24;5.07;;;3.73;;
16760;SDS011;8498;52.516;13.790;2023-06-14T02:17:47;3.77;;;3.40;;
16760;SDS011;8498;52.516;13.790;2023-06-14T02:23:11;4.97;;;3.10;;
16760;SDS011;8498;52.516;13.790;2023-06-14T02:28:33;4.73;;;3.60;;
16760;SDS011;8498;52.516;13.790;2023-06-14T02:33:57;10.33;;;3.80;;
16760;SDS011;8498;52.516;13.790;2023-06-14T02:39:20;7.67;;;3.90;;
16760;SDS011;8498;52.516;13.790;2023-06-14T02:44:43;4.67;;;4.03;;
16760;SDS011;8498;52.516;13.790;2023-06-14T02:50:07;8.03;;;3.97;;
16760;SDS011;8498;52.516;13.790;2023-06-14T02:55:30;7.60;;;4.37;;
16760;SDS011;8498;52.516;13.790;2023-06-14T03:00:52;5.07;;;4.00;;
16760;SDS011;8498;52.516;13.790;2023-06-14T03:06:16;7.73;;;4.07;;
16760;SDS011;8498;52.516;13.790;2023-06-14T03:11:42;5.80;;;4.00;;
16760;SDS011;8498;52.516;13.790;2023-06-14T03:17:05;5.80;;;4.30;;
16760;SDS011;8498;52.516;13.790;2023-06-14T03:22:33;4.93;;;4.00;;
16760;SDS011;8498;52.516;13.790;2023-06-14T03:27:56;6.23;;;4.57;;
16760;SDS011;8498;52.516;13.790;2023-06-14T03:33:19;8.53;;;4.43;;
16760;SDS011;8498;52.516;13.790;2023-06-14T03:38:43;5.53;;;4.23;;
16760;SDS011;8498;52.516;13.790;2023-06-14T03:44:07;7.83;;;4.23;;
16760;SDS011;8498;52.516;13.790;2023-06-14T03:49:29;6.50;;;4.37;;
16760;SDS011;8498;52.516;13.790;2023-06-14T03:54:52;6.70;;;4.70;;
16760;SDS011;8498;52.516;13.790;2023-06-14T04:00:17;4.90;;;4.40;;
16760;SDS011;8498;52.516;13.790;2023-06-14T04:05:40;6.27;;;4.60;;
16760;SDS011;8498;52.516;13.790;2023-06-14T04:11:06;8.07;;;4.90;;
16760;SDS011;8498;52.516;13.790;2023-06-14T04:16:30;12.33;;;4.53;;
16760;SDS011;8498;52.516;13.790;2023-06-14T04:21:53;12.30;;;5.03;;
16760;SDS011;8498;52.516;13.790;2023-06-14T04:27:16;5.97;;;5.07;;
16760;SDS011;8498;52.516;13.790;2023-06-14T04:32:43;5.80;;;4.60;;
16760;SDS011;8498;52.516;13.790;2023-06-14T04:38:08;8.30;;;4.87;;
16760;SDS011;8498;52.516;13.790;2023-06-14T04:43:32;8.73;;;5.57;;
16760;SDS011;8498;52.516;13.790;2023-06-14T04:49:01;10.77;;;6.53;;
16760;SDS011;8498;52.516;13.790;2023-06-14T04:54:24;8.47;;;5.77;;
16760;SDS011;8498;52.516;13.790;2023-06-14T04:59:49;14.10;;;5.77;;
16760;SDS011;8498;52.516;13.790;2023-06-14T05:05:18;9.67;;;5.43;;
16760;SDS011;8498;52.516;13.790;2023-06-14T05:10:42;9.57;;;5.07;;
16760;SDS011;8498;52.516;13.790;2023-06-14T05:16:05;9.93;;;6.00;;
16760;SDS011;8498;52.516;13.790;2023-06-14T05:21:28;8.43;;;5.20;;
16760;SDS011;8498;52.516;13.790;2023-06-14T05:26:52;9.70;;;5.97;;
16760;SDS011;8498;52.516;13.790;2023-06-14T05:32:15;10.53;;;5.47;;
16760;SDS011;8498;52.516;13.790;2023-06-14T05:37:37;7.03;;;4.87;;
16760;SDS011;8498;52.516;13.790;2023-06-14T05:43:00;11.43;;;5.60;;
16760;SDS011;8498;52.516;13.790;2023-06-14T05:48:22;9.33;;;4.90;;
16760;SDS011;8498;52.516;13.790;2023-06-14T05:53:45;5.00;;;4.50;;
16760;SDS011;8498;52.516;13.790;2023-06-14T05:59:08;6.77;;;4.53;;
16760;SDS011;8498;52.516;13.790;2023-06-14T06:04:30;10.93;;;5.43;;
16760;SDS011;8498;52.516;13.790;2023-06-14T06:09:53;6.37;;;4.93;;
16760;SDS011;8498;52.516;13.790;2023-06-14T06:15:16;4.93;;;4.40;;
16760;SDS011;8498;52.516;13.790;2023-06-14T06:20:39;9.53;;;4.87;;
16760;SDS011;8498;52.516;13.790;2023-06-14T06:26:02;8.07;;;5.73;;
16760;SDS011;8498;52.516;13.790;2023-06-14T06:31:25;11.13;;;6.37;;
16760;SDS011;8498;52.516;13.790;2023-06-14T06:36:49;7.53;;;4.90;;
16760;SDS011;8498;52.516;13.790;2023-06-14T06:42:12;7.90;;;5.43;;
16760;SDS011;8498;52.516;13.790;2023-06-14T06:47:37;9.20;;;5.13;;
16760;SDS011;8498;52.516;13.790;2023-06-14T06:52:59;8.53;;;4.47;;
16760;SDS011;8498;52.516;13.790;2023-06-14T06:58:22;10.80;;;4.50;;
16760;SDS011;8498;52.516;13.790;2023-06-14T07:03:44;8.90;;;5.30;;
16760;SDS011;8498;52.516;13.790;2023-06-14T07:09:07;7.73;;;4.63;;
16760;SDS011;8498;52.516;13.790;2023-06-14T07:14:34;6.97;;;4.75;;
16760;SDS011;8498;52.516;13.790;2023-06-14T07:19:57;8.50;;;4.75;;
16760;SDS011;8498;52.516;13.790;2023-06-14T07:25:20;6.38;;;4.90;;
16760;SDS011;8498;52.516;13.790;2023-06-14T07:30:42;7.25;;;4.80;;
16760;SDS011;8498;52.516;13.790;2023-06-14T07:36:04;6.15;;;4.90;;
16760;SDS011;8498;52.516;13.790;2023-06-14T07:41:27;7.45;;;4.30;;
16760;SDS011;8498;52.516;13.790;2023-06-14T07:46:49;6.93;;;4.25;;
16760;SDS011;8498;52.516;13.790;2023-06-14T07:52:12;8.75;;;4.15;;
16760;SDS011;8498;52.516;13.790;2023-06-14T07:57:35;9.55;;;4.30;;
16760;SDS011;8498;52.516;13.790;2023-06-14T08:02:58;7.60;;;4.95;;
16760;SDS011;8498;52.516;13.790;2023-06-14T08:08:23;6.53;;;5.10;;
16760;SDS011;8498;52.516;13.790;2023-06-14T08:13:45;5.57;;;4.10;;
16760;SDS011;8498;52.516;13.790;2023-06-14T08:19:08;7.20;;;4.10;;
16760;SDS011;8498;52.516;13.790;2023-06-14T08:24:30;5.55;;;4.32;;
16760;SDS011;8498;52.516;13.790;2023-06-14T08:29:53;5.80;;;4.00;;
16760;SDS011;8498;52.516;13.790;2023-06-14T08:35:15;4.80;;;3.45;;
16760;SDS011;8498;52.516;13.790;2023-06-14T08:40:38;4.47;;;3.30;;
16760;SDS011;8498;52.516;13.790;2023-06-14T08:46:03;5.75;;;3.10;;
16760;SDS011;8498;52.516;13.790;2023-06-14T08:51:28;4.95;;;3.33;;
16760;SDS011;8498;52.516;13.790;2023-06-14T08:56:56;5.80;;;2.80;;
16760;SDS011;8498;52.516;13.790;2023-06-14T09:02:19;5.55;;;2.83;;
16760;SDS011;8498;52.516;13.790;2023-06-14T09:07:44;3.17;;;2.88;;
16760;SDS011;8498;52.516;13.790;2023-06-14T09:13:07;3.85;;;2.78;;
16760;SDS011;8498;52.516;13.790;2023-06-14T09:18:41;5.85;;;2.63;;
16760;SDS011;8498;52.516;13.790;2023-06-14T09:24:06;3.92;;;2.80;;
16760;SDS011;8498;52.516;13.790;2023-06-14T09:29:35;5.10;;;3.05;;
16760;SDS011;8498;52.516;13.790;2023-06-14T09:34:58;4.13;;;2.92;;
16760;SDS011;8498;52.516;13.790;2023-06-14T09:40:21;4.70;;;3.30;;
16760;SDS011;8498;52.516;13.790;2023-06-14T09:45:43;3.55;;;3.03;;
16760;SDS011;8498;52.516;13.790;2023-06-14T09:51:09;10.77;;;2.88;;
16760;SDS011;8498;52.516;13.790;2023-06-14T09:56:37;3.70;;;3.05;;
16760;SDS011;8498;52.516;13.790;2023-06-14T10:02:05;14.10;;;4.45;;
16760;SDS011;8498;52.516;13.790;2023-06-14T10:07:38;6.43;;;3.47;;
16760;SDS011;8498;52.516;13.790;2023-06-14T10:13:04;3.30;;;2.97;;
16760;SDS011;8498;52.516;13.790;2023-06-14T10:24:13;5.70;;;2.90;;
16760;SDS011;8498;52.516;13.790;2023-06-14T10:35:16;5.65;;;3.33;;
16760;SDS011;8498;52.516;13.790;2023-06-14T10:40:40;4.13;;;3.35;;
16760;SDS011;8498;52.516;13.790;2023-06-14T10:46:19;7.40;;;3.03;;
16760;SDS011;8498;52.516;13.790;2023-06-14T10:51:45;3.90;;;3.10;;
16760;SDS011;8498;52.516;13.790;2023-06-14T10:57:12;5.38;;;3.10;;
16760;SDS011;8498;52.516;13.790;2023-06-14T11:13:49;6.35;;;3.33;;
16760;SDS011;8498;52.516;13.790;2023-06-14T11:19:15;6.68;;;3.47;;
16760;SDS011;8498;52.516;13.790;2023-06-14T11:24:39;3.53;;;3.15;;
16760;SDS011;8498;52.516;13.790;2023-06-14T11:30:01;5.63;;;3.30;;
16760;SDS011;8498;52.516;13.790;2023-06-14T11:35:25;5.50;;;3.00;;
16760;SDS011;8498;52.516;13.790;2023-06-14T11:40:48;4.00;;;3.10;;
16760;SDS011;8498;52.516;13.790;2023-06-14T11:46:15;7.43;;;3.40;;
16760;SDS011;8498;52.516;13.790;2023-06-14T11:51:38;5.57;;;3.15;;
16760;SDS011;8498;52.516;13.790;2023-06-14T11:57:01;6.30;;;3.00;;
16760;SDS011;8498;52.516;13.790;2023-06-14T12:02:24;3.60;;;3.30;;
16760;SDS011;8498;52.516;13.790;2023-06-14T12:07:47;3.95;;;3.25;;
16760;SDS011;8498;52.516;13.790;2023-06-14T12:13:10;5.20;;;3.70;;
16760;SDS011;8498;52.516;13.790;2023-06-14T12:18:36;4.50;;;3.10;;
16760;SDS011;8498;52.516;13.790;2023-06-14T12:24:03;7.97;;;3.00;;
16760;SDS011;8498;52.516;13.790;2023-06-14T12:29:26;4.88;;;2.80;;
16760;SDS011;8498;52.516;13.790;2023-06-14T12:34:48;3.53;;;2.67;;
16760;SDS011;8498;52.516;13.790;2023-06-14T12:40:11;6.63;;;3.25;;
16760;SDS011;8498;52.516;13.790;2023-06-14T12:45:34;6.90;;;2.90;;
16760;SDS011;8498;52.516;13.790;2023-06-14T12:50:57;5.88;;;2.80;;
16760;SDS011;8498;52.516;13.790;2023-06-14T12:56:20;8.88;;;3.20;;
16760;SDS011;8498;52.516;13.790;2023-06-14T13:01:45;3.67;;;2.90;;
16760;SDS011;8498;52.516;13.790;2023-06-14T13:07:09;12.25;;;3.03;;
16760;SDS011;8498;52.516;13.790;2023-06-14T13:12:37;5.07;;;2.78;;
16760;SDS011;8498;52.516;13.790;2023-06-14T13:17:59;4.43;;;2.88;;
16760;SDS011;8498;52.516;13.790;2023-06-14T13:23:21;5.47;;;3.28;;
16760;SDS011;8498;52.516;13.790;2023-06-14T13:28:44;8.95;;;3.58;;
16760;SDS011;8498;52.516;13.790;2023-06-14T13:34:07;11.52;;;3.10;;
16760;SDS011;8498;52.516;13.790;2023-06-14T13:39:29;7.40;;;3.30;;
16760;SDS011;8498;52.516;13.790;2023-06-14T13:44:52;4.35;;;3.30;;
16760;SDS011;8498;52.516;13.790;2023-06-14T13:50:14;3.45;;;3.13;;
16760;SDS011;8498;52.516;13.790;2023-06-14T13:55:38;7.32;;;3.83;;
16760;SDS011;8498;52.516;13.790;2023-06-14T14:01:01;3.75;;;3.00;;
16760;SDS011;8498;52.516;13.790;2023-06-14T14:06:26;6.28;;;3.35;;
16760;SDS011;8498;52.516;13.790;2023-06-14T14:11:48;5.72;;;3.53;;
16760;SDS011;8498;52.516;13.790;2023-06-14T14:17:11;9.05;;;3.13;;
16760;SDS011;8498;52.516;13.790;2023-06-14T14:22:34;3.88;;;2.90;;
16760;SDS011;8498;52.516;13.790;2023-06-14T14:27:56;8.93;;;3.25;;
16760;SDS011;8498;52.516;13.790;2023-06-14T14:33:19;4.55;;;3.20;;
16760;SDS011;8498;52.516;13.790;2023-06-14T14:38:42;9.13;;;3.20;;
16760;SDS011;8498;52.516;13.790;2023-06-14T14:44:06;5.30;;;2.78;;
16760;SDS011;8498;52.516;13.790;2023-06-14T14:49:29;6.70;;;3.10;;
16760;SDS011;8498;52.516;13.790;2023-06-14T14:54:51;3.75;;;3.10;;
16760;SDS011;8498;52.516;13.790;2023-06-14T15:00:15;3.33;;;3.03;;
16760;SDS011;8498;52.516;13.790;2023-06-14T15:05:39;3.20;;;2.53;;
16760;SDS011;8498;52.516;13.790;2023-06-14T15:11:02;5.30;;;3.17;;
16760;SDS011;8498;52.516;13.790;2023-06-14T15:16:25;9.40;;;2.97;;
16760;SDS011;8498;52.516;13.790;2023-06-14T15:21:52;6.68;;;3.13;;
16760;SDS011;8498;52.516;13.790;2023-06-14T15:27:14;4.30;;;3.10;;
16760;SDS011;8498;52.516;13.790;2023-06-14T15:32:37;9.63;;;3.35;;
16760;SDS011;8498;52.516;13.790;2023-06-14T15:37:59;37.25;;;4.60;;
16760;SDS011;8498;52.516;13.790;2023-06-14T15:43:22;5.93;;;3.55;;
16760;SDS011;8498;52.516;13.790;2023-06-14T15:48:45;14.77;;;3.25;;
16760;SDS011;8498;52.516;13.790;2023-06-14T15:54:08;5.60;;;3.22;;
16760;SDS011;8498;52.516;13.790;2023-06-14T15:59:30;6.28;;;3.55;;
16760;SDS011;8498;52.516;13.790;2023-06-14T16:04:53;3.38;;;2.80;;
16760;SDS011;8498;52.516;13.790;2023-06-14T16:10:15;6.38;;;3.10;;
16760;SDS011;8498;52.516;13.790;2023-06-14T16:15:38;6.35;;;3.20;;
16760;SDS011;8498;52.516;13.790;2023-06-14T16:21:00;6.57;;;3.10;;
16760;SDS011;8498;52.516;13.790;2023-06-14T16:26:24;10.95;;;3.47;;
16760;SDS011;8498;52.516;13.790;2023-06-14T16:31:48;5.38;;;2.97;;
16760;SDS011;8498;52.516;13.790;2023-06-14T16:37:10;4.60;;;3.15;;
16760;SDS011;8498;52.516;13.790;2023-06-14T16:42:33;3.88;;;3.15;;
16760;SDS011;8498;52.516;13.790;2023-06-14T16:47:56;6.65;;;3.58;;
16760;SDS011;8498;52.516;13.790;2023-06-14T16:53:18;3.70;;;3.15;;
16760;SDS011;8498;52.516;13.790;2023-06-14T16:58:41;7.15;;;4.13;;
16760;SDS011;8498;52.516;13.790;2023-06-14T17:04:03;4.10;;;3.03;;
16760;SDS011;8498;52.516;13.790;2023-06-14T17:09:26;9.88;;;3.25;;
16760;SDS011;8498;52.516;13.790;2023-06-14T17:14:48;5.60;;;3.53;;
16760;SDS011;8498;52.516;13.790;2023-06-14T17:20:13;3.67;;;3.38;;
16760;SDS011;8498;52.516;13.790;2023-06-14T17:25:36;3.92;;;2.88;;
16760;SDS011;8498;52.516;13.790;2023-06-14T17:30:59;5.97;;;3.20;;
16760;SDS011;8498;52.516;13.790;2023-06-14T17:36:22;3.97;;;3.13;;
16760;SDS011;8498;52.516;13.790;2023-06-14T17:41:44;4.43;;;3.75;;
16760;SDS011;8498;52.516;13.790;2023-06-14T17:47:07;6.30;;;3.28;;
16760;SDS011;8498;52.516;13.790;2023-06-14T17:52:29;5.30;;;3.38;;
16760;SDS011;8498;52.516;13.790;2023-06-14T17:57:52;4.22;;;3.33;;
16760;SDS011;8498;52.516;13.790;2023-06-14T18:03:14;3.50;;;3.20;;
16760;SDS011;8498;52.516;13.790;2023-06-14T18:08:37;4.32;;;2.85;;
16760;SDS011;8498;52.516;13.790;2023-06-14T18:13:59;5.50;;;3.50;;
16760;SDS011;8498;52.516;13.790;2023-06-14T18:19:22;3.95;;;2.88;;
16760;SDS011;8498;52.516;13.790;2023-06-14T18:24:48;7.20;;;3.63;;
16760;SDS011;8498;52.516;13.790;2023-06-14T18:30:11;6.00;;;3.63;;
16760;SDS011;8498;52.516;13.790;2023-06-14T18:35:36;7.82;;;3.35;;
16760;SDS011;8498;52.516;13.790;2023-06-14T18:40:59;7.57;;;3.08;;
16760;SDS011;8498;52.516;13.790;2023-06-14T18:46:22;5.03;;;3.13;;
16760;SDS011;8498;52.516;13.790;2023-06-14T18:51:45;7.07;;;3.70;;
16760;SDS011;8498;52.516;13.790;2023-06-14T18:57:08;4.93;;;3.42;;
16760;SDS011;8498;52.516;13.790;2023-06-14T19:02:31;3.45;;;2.90;;
16760;SDS011;8498;52.516;13.790;2023-06-14T19:07:53;4.90;;;3.38;;
16760;SDS011;8498;52.516;13.790;2023-06-14T19:13:16;3.83;;;3.20;;
16760;SDS011;8498;52.516;13.790;2023-06-14T19:18:38;8.77;;;3.30;;
16760;SDS011;8498;52.516;13.790;2023-06-14T19:24:00;3.65;;;3.17;;
16760;SDS011;8498;52.516;13.790;2023-06-14T19:29:23;5.75;;;3.70;;
16760;SDS011;8498;52.516;13.790;2023-06-14T19:34:45;7.43;;;3.50;;
16760;SDS011;8498;52.516;13.790;2023-06-14T19:40:08;3.67;;;3.08;;
16760;SDS011;8498;52.516;13.790;2023-06-14T19:45:31;3.55;;;3.08;;
16760;SDS011;8498;52.516;13.790;2023-06-14T19:50:55;5.55;;;3.50;;
16760;SDS011;8498;52.516;13.790;2023-06-14T19:56:17;8.88;;;3.50;;
16760;SDS011;8498;52.516;13.790;2023-06-14T20:01:40;4.78;;;3.03;;
16760;SDS011;8498;52.516;13.790;2023-06-14T20:07:03;7.28;;;3.88;;
16760;SDS011;8498;52.516;13.790;2023-06-14T20:12:28;4.63;;;2.97;;
16760;SDS011;8498;52.516;13.790;2023-06-14T20:17:50;5.28;;;3.75;;
16760;SDS011;8498;52.516;13.790;2023-06-14T20:23:13;7.80;;;3.58;;
16760;SDS011;8498;52.516;13.790;2023-06-14T20:28:35;7.03;;;3.35;;
16760;SDS011;8498;52.516;13.790;2023-06-14T20:33:58;7.18;;;3.30;;
16760;SDS011;8498;52.516;13.790;2023-06-14T20:39:20;3.42;;;2.97;;
16760;SDS011;8498;52.516;13.790;2023-06-14T20:44:42;8.52;;;3.50;;
16760;SDS011;8498;52.516;13.790;2023-06-14T20:50:05;4.47;;;3.35;;
16760;SDS011;8498;52.516;13.790;2023-06-14T20:55:30;7.93;;;3.17;;
16760;SDS011;8498;52.516;13.790;2023-06-14T21:00:54;6.70;;;3.28;;
16760;SDS011;8498;52.516;13.790;2023-06-14T21:06:16;11.38;;;3.35;;
16760;SDS011;8498;52.516;13.790;2023-06-14T21:11:39;4.63;;;3.42;;
16760;SDS011;8498;52.516;13.790;2023-06-14T21:17:01;7.43;;;3.50;;
16760;SDS011;8498;52.516;13.790;2023-06-14T21:22:24;6.88;;;3.45;;
16760;SDS011;8498;52.516;13.790;2023-06-14T21:27:46;3.92;;;3.30;;
16760;SDS011;8498;52.516;13.790;2023-06-14T21:33:09;3.72;;;3.08;;
16760;SDS011;8498;52.516;13.790;2023-06-14T21:38:32;8.57;;;3.65;;
16760;SDS011;8498;52.516;13.790;2023-06-14T21:43:54;5.03;;;3.05;;
16760;SDS011;8498;52.516;13.790;2023-06-14T21:49:17;7.28;;;3.70;;
16760;SDS011;8498;52.516;13.790;2023-06-14T21:54:41;3.20;;;2.90;;
16760;SDS011;8498;52.516;13.790;2023-06-14T22:00:04;4.35;;;2.85;;
16760;SDS011;8498;52.516;13.790;2023-06-14T22:05:28;6.07;;;3.13;;
16760;SDS011;8498;52.516;13.790;2023-06-14T22:10:51;4.15;;;2.83;;
16760;SDS011;8498;52.516;13.790;2023-06-14T22:16:13;5.63;;;2.80;;
16760;SDS011;8498;52.516;13.790;2023-06-14T22:21:36;6.75;;;3.60;;
16760;SDS011;8498;52.516;13.790;2023-06-14T22:26:58;3.70;;;2.92;;
16760;SDS011;8498;52.516;13.790;2023-06-14T22:32:25;5.50;;;3.20;;
16760;SDS011;8498;52.516;13.790;2023-06-14T22:37:49;8.77;;;3.45;;
16760;SDS011;8498;52.516;13.790;2023-06-14T22:43:11;3.10;;;2.80;;
16760;SDS011;8498;52.516;13.790;2023-06-14T22:48:37;6.78;;;3.15;;
16760;SDS011;8498;52.516;13.790;2023-06-14T22:54:07;9.80;;;3.25;;
16760;SDS011;8498;52.516;13.790;2023-06-14T22:59:29;4.70;;;3.38;;
16760;SDS011;8498;52.516;13.790;2023-06-14T23:04:53;6.18;;;3.30;;
16760;SDS011;8498;52.516;13.790;2023-06-14T23:10:16;4.88;;;3.83;;
16760;SDS011;8498;52.516;13.790;2023-06-14T23:15:40;5.13;;;3.65;;
16760;SDS011;8498;52.516;13.790;2023-06-14T23:21:04;8.15;;;3.35;;
16760;SDS011;8498;52.516;13.790;2023-06-14T23:26:27;6.38;;;3.25;;
16760;SDS011;8498;52.516;13.790;2023-06-14T23:31:50;4.80;;;3.38;;
16760;SDS011;8498;52.516;13.790;2023-06-14T23:37:12;6.22;;;3.25;;
16760;SDS011;8498;52.516;13.790;2023-06-14T23:42:35;5.03;;;3.55;;
16760;SDS011;8498;52.516;13.790;2023-06-14T23:48:03;7.85;;;3.80;;
16760;SDS011;8498;52.516;13.790;2023-06-14T23:53:26;4.85;;;3.10;;
16760;SDS011;8498;52.516;13.790;2023-06-14T23:58:50;8.35;;;3.70;;
